sensor_id;sensor_type;location;lat;lon;timestamp;P1;durP1;ratioP1;P2;durP2;ratioP2
21860;SDS011;11095;48.066;8.540;2023-06-22T00:01:42;14.35;;;8.95;;
21860;SDS011;11095;48.066;8.540;2023-06-22T00:04:08;13.05;;;8.35;;
21860;SDS011;11095;48.066;8.540;2023-06-22T00:06:33;13.23;;;9.38;;
21860;SDS011;11095;48.066;8.540;2023-06-22T00:08:59;13.10;;;10.18;;
21860;SDS011;11095;48.066;8.540;2023-06-22T00:11:25;16.23;;;10.10;;
21860;SDS011;11095;48.066;8.540;2023-06-22T00:13:52;12.93;;;9.43;;
21860;SDS011;11095;48.066;8.540;2023-06-22T00:16:18;10.32;;;8.60;;
21860;SDS011;11095;48.066;8.540;2023-06-22T00:18:44;11.27;;;7.88;;
21860;SDS011;11095;48.066;8.540;2023-06-22T00:21:12;9.95;;;7.90;;
21860;SDS011;11095;48.066;8.540;2023-06-22T00:23:45;11.30;;;8.82;;
21860;SDS011;11095;48.066;8.540;2023-06-22T00:26:22;16.08;;;10.23;;
21860;SDS011;11095;48.066;8.540;2023-06-22T00:28:53;12.40;;;9.32;;
21860;SDS011;11095;48.066;8.540;2023-06-22T00:31:21;12.13;;;8.55;;
21860;SDS011;11095;48.066;8.540;2023-06-22T00:40:14;15.95;;;10.15;;
21860;SDS011;11095;48.066;8.540;2023-06-22T00:42:40;17.77;;;10.63;;
21860;SDS011;11095;48.066;8.540;2023-06-22T00:45:10;13.77;;;9.27;;
21860;SDS011;11095;48.066;8.540;2023-06-22T00:48:20;11.30;;;8.30;;
21860;SDS011;11095;48.066;8.540;2023-06-22T00:50:46;15.50;;;9.80;;
21860;SDS011;11095;48.066;8.540;2023-06-22T00:53:28;15.18;;;9.82;;
21860;SDS011;11095;48.066;8.540;2023-06-22T00:56:22;13.55;;;10.00;;
21860;SDS011;11095;48.066;8.540;2023-06-22T00:58:57;12.95;;;8.60;;
21860;SDS011;11095;48.066;8.540;2023-06-22T01:01:34;18.30;;;10.23;;
21860;SDS011;11095;48.066;8.540;2023-06-22T01:04:15;15.90;;;9.77;;
21860;SDS011;11095;48.066;8.540;2023-06-22T01:06:47;15.55;;;9.68;;
21860;SDS011;11095;48.066;8.540;2023-06-22T01:09:32;14.63;;;9.57;;
21860;SDS011;11095;48.066;8.540;2023-06-22T01:12:07;14.80;;;9.60;;
21860;SDS011;11095;48.066;8.540;2023-06-22T01:14:38;18.40;;;10.60;;
21860;SDS011;11095;48.066;8.540;2023-06-22T01:17:15;19.98;;;11.05;;
21860;SDS011;11095;48.066;8.540;2023-06-22T01:19:51;15.85;;;10.60;;
21860;SDS011;11095;48.066;8.540;2023-06-22T01:22:23;16.48;;;11.32;;
21860;SDS011;11095;48.066;8.540;2023-06-22T01:30:34;12.85;;;10.57;;
21860;SDS011;11095;48.066;8.540;2023-06-22T01:33:00;17.95;;;11.63;;
21860;SDS011;11095;48.066;8.540;2023-06-22T01:35:30;13.70;;;11.05;;
21860;SDS011;11095;48.066;8.540;2023-06-22T01:37:56;20.17;;;12.27;;
21860;SDS011;11095;48.066;8.540;2023-06-22T01:40:26;17.48;;;13.35;;
21860;SDS011;11095;48.066;8.540;2023-06-22T01:42:53;18.35;;;12.70;;
21860;SDS011;11095;48.066;8.540;2023-06-22T01:45:19;18.75;;;12.98;;
21860;SDS011;11095;48.066;8.540;2023-06-22T01:47:45;16.20;;;12.02;;
21860;SDS011;11095;48.066;8.540;2023-06-22T01:50:11;16.80;;;12.95;;
21860;SDS011;11095;48.066;8.540;2023-06-22T01:52:37;14.60;;;12.35;;
21860;SDS011;11095;48.066;8.540;2023-06-22T01:55:03;17.02;;;13.00;;
21860;SDS011;11095;48.066;8.540;2023-06-22T01:57:31;16.60;;;12.50;;
21860;SDS011;11095;48.066;8.540;2023-06-22T02:00:01;17.70;;;13.30;;
21860;SDS011;11095;48.066;8.540;2023-06-22T02:02:32;17.92;;;13.55;;
21860;SDS011;11095;48.066;8.540;2023-06-22T02:05:07;22.88;;;14.13;;
21860;SDS011;11095;48.066;8.540;2023-06-22T02:07:48;18.45;;;13.13;;
21860;SDS011;11095;48.066;8.540;2023-06-22T02:10:25;20.40;;;14.52;;
21860;SDS011;11095;48.066;8.540;2023-06-22T02:15:33;20.13;;;13.80;;
21860;SDS011;11095;48.066;8.540;2023-06-22T02:17:59;18.88;;;14.43;;
21860;SDS011;11095;48.066;8.540;2023-06-22T02:20:28;18.98;;;14.23;;
21860;SDS011;11095;48.066;8.540;2023-06-22T02:22:56;20.50;;;14.23;;
21860;SDS011;11095;48.066;8.540;2023-06-22T02:25:31;23.55;;;15.43;;
21860;SDS011;11095;48.066;8.540;2023-06-22T02:27:57;21.83;;;15.52;;
21860;SDS011;11095;48.066;8.540;2023-06-22T02:30:23;19.48;;;15.48;;
21860;SDS011;11095;48.066;8.540;2023-06-22T02:32:58;19.88;;;15.20;;
21860;SDS011;11095;48.066;8.540;2023-06-22T02:35:32;21.88;;;15.30;;
21860;SDS011;11095;48.066;8.540;2023-06-22T02:38:13;19.88;;;16.02;;
21860;SDS011;11095;48.066;8.540;2023-06-22T02:40:39;21.55;;;15.98;;
21860;SDS011;11095;48.066;8.540;2023-06-22T02:43:05;21.20;;;15.45;;
21860;SDS011;11095;48.066;8.540;2023-06-22T02:45:31;18.50;;;14.15;;
21860;SDS011;11095;48.066;8.540;2023-06-22T02:47:57;20.77;;;15.35;;
21860;SDS011;11095;48.066;8.540;2023-06-22T02:50:23;21.77;;;15.90;;
21860;SDS011;11095;48.066;8.540;2023-06-22T02:52:51;21.02;;;15.60;;
21860;SDS011;11095;48.066;8.540;2023-06-22T02:55:29;21.95;;;15.35;;
21860;SDS011;11095;48.066;8.540;2023-06-22T02:58:01;25.33;;;16.23;;
21860;SDS011;11095;48.066;8.540;2023-06-22T03:00:29;21.23;;;16.17;;
21860;SDS011;11095;48.066;8.540;2023-06-22T03:02:56;23.42;;;15.90;;
21860;SDS011;11095;48.066;8.540;2023-06-22T03:05:22;23.77;;;16.85;;
21860;SDS011;11095;48.066;8.540;2023-06-22T03:07:48;23.30;;;16.40;;
21860;SDS011;11095;48.066;8.540;2023-06-22T03:10:14;25.20;;;17.08;;
21860;SDS011;11095;48.066;8.540;2023-06-22T03:12:41;24.17;;;16.92;;
21860;SDS011;11095;48.066;8.540;2023-06-22T03:15:18;22.85;;;16.23;;
21860;SDS011;11095;48.066;8.540;2023-06-22T03:17:44;21.25;;;16.15;;
21860;SDS011;11095;48.066;8.540;2023-06-22T03:20:12;25.02;;;17.42;;
21860;SDS011;11095;48.066;8.540;2023-06-22T03:22:38;21.58;;;16.02;;
21860;SDS011;11095;48.066;8.540;2023-06-22T03:25:14;23.35;;;16.45;;
21860;SDS011;11095;48.066;8.540;2023-06-22T03:27:42;20.58;;;16.15;;
21860;SDS011;11095;48.066;8.540;2023-06-22T03:33:54;24.67;;;16.88;;
21860;SDS011;11095;48.066;8.540;2023-06-22T03:36:21;20.77;;;15.80;;
21860;SDS011;11095;48.066;8.540;2023-06-22T03:38:47;25.23;;;16.65;;
21860;SDS011;11095;48.066;8.540;2023-06-22T03:41:13;23.85;;;16.25;;
21860;SDS011;11095;48.066;8.540;2023-06-22T03:43:39;22.63;;;16.80;;
21860;SDS011;11095;48.066;8.540;2023-06-22T03:46:05;17.75;;;14.18;;
21860;SDS011;11095;48.066;8.540;2023-06-22T03:48:31;21.77;;;14.40;;
21860;SDS011;11095;48.066;8.540;2023-06-22T03:50:56;16.40;;;12.65;;
21860;SDS011;11095;48.066;8.540;2023-06-22T03:53:28;18.17;;;13.95;;
21860;SDS011;11095;48.066;8.540;2023-06-22T03:55:53;17.10;;;12.85;;
21860;SDS011;11095;48.066;8.540;2023-06-22T03:58:19;13.85;;;11.85;;
21860;SDS011;11095;48.066;8.540;2023-06-22T04:00:46;14.10;;;11.50;;
21860;SDS011;11095;48.066;8.540;2023-06-22T04:03:16;14.02;;;10.82;;
21860;SDS011;11095;48.066;8.540;2023-06-22T04:05:46;15.73;;;12.50;;
21860;SDS011;11095;48.066;8.540;2023-06-22T04:08:12;15.95;;;11.27;;
21860;SDS011;11095;48.066;8.540;2023-06-22T04:10:39;13.18;;;10.27;;
21860;SDS011;11095;48.066;8.540;2023-06-22T04:13:04;13.73;;;9.93;;
21860;SDS011;11095;48.066;8.540;2023-06-22T04:15:30;12.40;;;9.98;;
21860;SDS011;11095;48.066;8.540;2023-06-22T04:17:55;15.45;;;11.07;;
21860;SDS011;11095;48.066;8.540;2023-06-22T04:20:22;12.35;;;9.43;;
21860;SDS011;11095;48.066;8.540;2023-06-22T04:22:50;13.00;;;10.27;;
21860;SDS011;11095;48.066;8.540;2023-06-22T04:25:19;9.35;;;8.25;;
21860;SDS011;11095;48.066;8.540;2023-06-22T04:27:45;12.07;;;8.05;;
21860;SDS011;11095;48.066;8.540;2023-06-22T04:30:11;10.70;;;8.20;;
21860;SDS011;11095;48.066;8.540;2023-06-22T04:32:41;13.45;;;9.50;;
21860;SDS011;11095;48.066;8.540;2023-06-22T04:35:07;9.43;;;7.60;;
21860;SDS011;11095;48.066;8.540;2023-06-22T04:37:33;10.25;;;7.05;;
21860;SDS011;11095;48.066;8.540;2023-06-22T04:39:59;8.30;;;6.30;;
21860;SDS011;11095;48.066;8.540;2023-06-22T04:42:28;7.28;;;6.05;;
21860;SDS011;11095;48.066;8.540;2023-06-22T04:44:53;10.90;;;8.00;;
21860;SDS011;11095;48.066;8.540;2023-06-22T04:47:19;14.95;;;9.57;;
21860;SDS011;11095;48.066;8.540;2023-06-22T04:49:45;11.23;;;8.40;;
21860;SDS011;11095;48.066;8.540;2023-06-22T04:52:11;9.15;;;7.45;;
21860;SDS011;11095;48.066;8.540;2023-06-22T04:54:39;9.00;;;8.10;;
21860;SDS011;11095;48.066;8.540;2023-06-22T04:57:12;9.43;;;6.82;;
21860;SDS011;11095;48.066;8.540;2023-06-22T04:59:38;13.35;;;8.65;;
21860;SDS011;11095;48.066;8.540;2023-06-22T05:02:06;10.77;;;7.30;;
21860;SDS011;11095;48.066;8.540;2023-06-22T05:04:33;8.43;;;6.57;;
21860;SDS011;11095;48.066;8.540;2023-06-22T05:07:00;8.65;;;6.90;;
21860;SDS011;11095;48.066;8.540;2023-06-22T05:09:27;11.27;;;7.70;;
21860;SDS011;11095;48.066;8.540;2023-06-22T05:11:54;8.77;;;6.53;;
21860;SDS011;11095;48.066;8.540;2023-06-22T05:14:21;11.32;;;6.30;;
21860;SDS011;11095;48.066;8.540;2023-06-22T05:16:48;7.60;;;5.70;;
21860;SDS011;11095;48.066;8.540;2023-06-22T05:21:42;13.52;;;8.63;;
21860;SDS011;11095;48.066;8.540;2023-06-22T05:24:08;10.70;;;8.95;;
21860;SDS011;11095;48.066;8.540;2023-06-22T05:26:34;11.18;;;7.20;;
21860;SDS011;11095;48.066;8.540;2023-06-22T05:29:01;9.50;;;5.50;;
21860;SDS011;11095;48.066;8.540;2023-06-22T05:31:29;10.13;;;6.22;;
21860;SDS011;11095;48.066;8.540;2023-06-22T05:37:13;14.48;;;7.20;;
21860;SDS011;11095;48.066;8.540;2023-06-22T05:39:54;10.23;;;5.43;;
21860;SDS011;11095;48.066;8.540;2023-06-22T05:42:22;9.15;;;7.15;;
21860;SDS011;11095;48.066;8.540;2023-06-22T05:44:50;7.45;;;5.03;;
21860;SDS011;11095;48.066;8.540;2023-06-22T05:47:31;8.57;;;6.80;;
21860;SDS011;11095;48.066;8.540;2023-06-22T05:49:59;10.90;;;7.22;;
21860;SDS011;11095;48.066;8.540;2023-06-22T05:52:25;12.50;;;7.03;;
21860;SDS011;11095;48.066;8.540;2023-06-22T05:54:53;7.63;;;5.55;;
21860;SDS011;11095;48.066;8.540;2023-06-22T05:57:19;7.32;;;4.93;;
21860;SDS011;11095;48.066;8.540;2023-06-22T05:59:46;8.25;;;4.93;;
21860;SDS011;11095;48.066;8.540;2023-06-22T06:02:12;7.95;;;4.72;;
21860;SDS011;11095;48.066;8.540;2023-06-22T06:04:45;7.45;;;5.60;;
21860;SDS011;11095;48.066;8.540;2023-06-22T06:07:11;9.00;;;6.03;;
21860;SDS011;11095;48.066;8.540;2023-06-22T06:09:39;8.05;;;5.22;;
21860;SDS011;11095;48.066;8.540;2023-06-22T06:12:05;11.57;;;6.68;;
21860;SDS011;11095;48.066;8.540;2023-06-22T06:14:31;12.68;;;7.53;;
21860;SDS011;11095;48.066;8.540;2023-06-22T06:17:00;8.88;;;6.22;;
21860;SDS011;11095;48.066;8.540;2023-06-22T06:19:26;7.15;;;4.40;;
21860;SDS011;11095;48.066;8.540;2023-06-22T06:21:51;9.25;;;5.68;;
21860;SDS011;11095;48.066;8.540;2023-06-22T06:24:19;9.50;;;5.18;;
21860;SDS011;11095;48.066;8.540;2023-06-22T06:26:45;8.20;;;4.65;;
21860;SDS011;11095;48.066;8.540;2023-06-22T06:29:10;8.02;;;5.57;;
21860;SDS011;11095;48.066;8.540;2023-06-22T06:31:36;8.30;;;5.18;;
21860;SDS011;11095;48.066;8.540;2023-06-22T06:34:02;10.85;;;6.68;;
21860;SDS011;11095;48.066;8.540;2023-06-22T06:36:27;8.32;;;5.07;;
21860;SDS011;11095;48.066;8.540;2023-06-22T06:38:53;8.35;;;4.32;;
21860;SDS011;11095;48.066;8.540;2023-06-22T06:41:19;6.68;;;4.40;;
21860;SDS011;11095;48.066;8.540;2023-06-22T06:43:44;6.60;;;4.15;;
21860;SDS011;11095;48.066;8.540;2023-06-22T06:46:10;10.05;;;5.72;;
21860;SDS011;11095;48.066;8.540;2023-06-22T06:48:36;8.68;;;5.35;;
21860;SDS011;11095;48.066;8.540;2023-06-22T06:51:01;12.35;;;6.47;;
21860;SDS011;11095;48.066;8.540;2023-06-22T06:53:27;9.70;;;6.00;;
21860;SDS011;11095;48.066;8.540;2023-06-22T06:55:56;8.80;;;4.00;;
21860;SDS011;11095;48.066;8.540;2023-06-22T06:58:22;10.77;;;6.28;;
21860;SDS011;11095;48.066;8.540;2023-06-22T07:00:57;8.38;;;5.85;;
21860;SDS011;11095;48.066;8.540;2023-06-22T07:03:22;8.05;;;4.95;;
21860;SDS011;11095;48.066;8.540;2023-06-22T07:05:48;10.75;;;5.40;;
21860;SDS011;11095;48.066;8.540;2023-06-22T07:08:17;6.93;;;4.90;;
21860;SDS011;11095;48.066;8.540;2023-06-22T07:10:42;12.25;;;6.72;;
21860;SDS011;11095;48.066;8.540;2023-06-22T07:13:08;11.20;;;6.70;;
21860;SDS011;11095;48.066;8.540;2023-06-22T07:15:33;11.65;;;6.75;;
21860;SDS011;11095;48.066;8.540;2023-06-22T07:18:04;9.10;;;4.97;;
21860;SDS011;11095;48.066;8.540;2023-06-22T07:20:33;10.85;;;6.45;;
21860;SDS011;11095;48.066;8.540;2023-06-22T07:22:59;11.48;;;6.47;;
21860;SDS011;11095;48.066;8.540;2023-06-22T07:25:25;11.15;;;6.60;;
21860;SDS011;11095;48.066;8.540;2023-06-22T07:27:58;10.27;;;5.95;;
21860;SDS011;11095;48.066;8.540;2023-06-22T07:30:28;9.40;;;4.75;;
21860;SDS011;11095;48.066;8.540;2023-06-22T07:32:54;12.18;;;6.78;;
21860;SDS011;11095;48.066;8.540;2023-06-22T07:35:23;12.30;;;6.65;;
21860;SDS011;11095;48.066;8.540;2023-06-22T07:37:49;7.32;;;5.22;;
21860;SDS011;11095;48.066;8.540;2023-06-22T07:40:14;6.68;;;4.80;;
21860;SDS011;11095;48.066;8.540;2023-06-22T07:42:40;8.45;;;5.90;;
21860;SDS011;11095;48.066;8.540;2023-06-22T07:45:06;9.32;;;5.43;;
21860;SDS011;11095;48.066;8.540;2023-06-22T07:47:33;6.90;;;4.88;;
21860;SDS011;11095;48.066;8.540;2023-06-22T07:50:00;9.52;;;4.97;;
21860;SDS011;11095;48.066;8.540;2023-06-22T07:52:30;8.90;;;4.70;;
21860;SDS011;11095;48.066;8.540;2023-06-22T07:54:59;9.20;;;4.97;;
21860;SDS011;11095;48.066;8.540;2023-06-22T07:57:24;8.00;;;4.70;;
21860;SDS011;11095;48.066;8.540;2023-06-22T08:00:18;9.02;;;5.60;;
21860;SDS011;11095;48.066;8.540;2023-06-22T08:02:45;9.07;;;4.70;;
21860;SDS011;11095;48.066;8.540;2023-06-22T08:05:19;7.07;;;4.97;;
21860;SDS011;11095;48.066;8.540;2023-06-22T08:10:44;11.15;;;5.30;;
21860;SDS011;11095;48.066;8.540;2023-06-22T08:13:10;9.50;;;5.03;;
21860;SDS011;11095;48.066;8.540;2023-06-22T08:15:36;7.72;;;5.18;;
21860;SDS011;11095;48.066;8.540;2023-06-22T08:18:01;6.38;;;4.07;;
21860;SDS011;11095;48.066;8.540;2023-06-22T08:20:27;7.45;;;4.60;;
21860;SDS011;11095;48.066;8.540;2023-06-22T08:22:53;7.15;;;4.38;;
21860;SDS011;11095;48.066;8.540;2023-06-22T08:25:19;12.70;;;4.82;;
21860;SDS011;11095;48.066;8.540;2023-06-22T08:27:46;8.52;;;4.88;;
21860;SDS011;11095;48.066;8.540;2023-06-22T08:30:13;9.73;;;5.30;;
21860;SDS011;11095;48.066;8.540;2023-06-22T08:32:40;9.30;;;4.45;;
21860;SDS011;11095;48.066;8.540;2023-06-22T08:35:05;9.13;;;4.45;;
21860;SDS011;11095;48.066;8.540;2023-06-22T08:37:33;9.65;;;4.65;;
21860;SDS011;11095;48.066;8.540;2023-06-22T08:40:00;8.43;;;4.68;;
21860;SDS011;11095;48.066;8.540;2023-06-22T08:42:31;8.65;;;4.30;;
21860;SDS011;11095;48.066;8.540;2023-06-22T08:44:56;6.65;;;4.00;;
21860;SDS011;11095;48.066;8.540;2023-06-22T08:47:24;10.52;;;4.30;;
21860;SDS011;11095;48.066;8.540;2023-06-22T08:49:50;11.20;;;4.47;;
21860;SDS011;11095;48.066;8.540;2023-06-22T08:52:17;7.80;;;4.18;;
21860;SDS011;11095;48.066;8.540;2023-06-22T08:54:43;8.63;;;4.50;;
21860;SDS011;11095;48.066;8.540;2023-06-22T08:57:09;6.60;;;3.90;;
21860;SDS011;11095;48.066;8.540;2023-06-22T08:59:38;7.97;;;4.25;;
21860;SDS011;11095;48.066;8.540;2023-06-22T09:02:05;7.97;;;4.50;;
21860;SDS011;11095;48.066;8.540;2023-06-22T09:04:30;8.35;;;4.32;;
21860;SDS011;11095;48.066;8.540;2023-06-22T09:09:25;7.18;;;4.40;;
21860;SDS011;11095;48.066;8.540;2023-06-22T09:11:51;10.00;;;4.90;;
21860;SDS011;11095;48.066;8.540;2023-06-22T09:14:16;9.82;;;4.45;;
21860;SDS011;11095;48.066;8.540;2023-06-22T09:16:44;9.68;;;4.93;;
21860;SDS011;11095;48.066;8.540;2023-06-22T09:19:10;10.77;;;5.35;;
21860;SDS011;11095;48.066;8.540;2023-06-22T09:21:36;9.25;;;5.55;;
21860;SDS011;11095;48.066;8.540;2023-06-22T09:24:03;8.90;;;5.20;;
21860;SDS011;11095;48.066;8.540;2023-06-22T09:26:28;9.18;;;5.28;;
21860;SDS011;11095;48.066;8.540;2023-06-22T09:28:54;9.70;;;5.97;;
21860;SDS011;11095;48.066;8.540;2023-06-22T09:31:20;9.57;;;6.22;;
21860;SDS011;11095;48.066;8.540;2023-06-22T09:33:50;11.38;;;6.30;;
21860;SDS011;11095;48.066;8.540;2023-06-22T09:36:17;10.00;;;5.90;;
21860;SDS011;11095;48.066;8.540;2023-06-22T09:38:43;9.45;;;5.72;;
21860;SDS011;11095;48.066;8.540;2023-06-22T09:41:08;11.88;;;6.38;;
21860;SDS011;11095;48.066;8.540;2023-06-22T09:43:34;12.10;;;6.05;;
21860;SDS011;11095;48.066;8.540;2023-06-22T09:46:02;11.73;;;5.60;;
21860;SDS011;11095;48.066;8.540;2023-06-22T09:48:28;10.55;;;5.63;;
21860;SDS011;11095;48.066;8.540;2023-06-22T09:50:55;13.02;;;6.15;;
21860;SDS011;11095;48.066;8.540;2023-06-22T09:53:21;9.98;;;5.45;;
21860;SDS011;11095;48.066;8.540;2023-06-22T09:55:46;9.85;;;5.40;;
21860;SDS011;11095;48.066;8.540;2023-06-22T09:58:12;9.93;;;5.00;;
21860;SDS011;11095;48.066;8.540;2023-06-22T10:00:38;9.90;;;5.05;;
21860;SDS011;11095;48.066;8.540;2023-06-22T10:03:03;10.38;;;5.10;;
21860;SDS011;11095;48.066;8.540;2023-06-22T10:05:29;7.90;;;4.93;;
21860;SDS011;11095;48.066;8.540;2023-06-22T10:07:54;8.02;;;5.10;;
21860;SDS011;11095;48.066;8.540;2023-06-22T10:10:20;10.57;;;5.13;;
21860;SDS011;11095;48.066;8.540;2023-06-22T10:12:46;13.20;;;5.78;;
21860;SDS011;11095;48.066;8.540;2023-06-22T10:15:13;9.13;;;5.10;;
21860;SDS011;11095;48.066;8.540;2023-06-22T10:17:39;8.50;;;4.85;;
21860;SDS011;11095;48.066;8.540;2023-06-22T10:20:06;11.93;;;5.78;;
21860;SDS011;11095;48.066;8.540;2023-06-22T10:22:38;11.75;;;5.82;;
21860;SDS011;11095;48.066;8.540;2023-06-22T10:25:07;12.75;;;5.40;;
21860;SDS011;11095;48.066;8.540;2023-06-22T10:27:33;11.13;;;5.50;;
21860;SDS011;11095;48.066;8.540;2023-06-22T10:29:59;11.68;;;5.95;;
21860;SDS011;11095;48.066;8.540;2023-06-22T10:32:25;10.98;;;5.68;;
21860;SDS011;11095;48.066;8.540;2023-06-22T10:34:50;13.48;;;5.47;;
21860;SDS011;11095;48.066;8.540;2023-06-22T10:37:16;11.10;;;5.60;;
21860;SDS011;11095;48.066;8.540;2023-06-22T10:39:42;12.25;;;6.00;;
21860;SDS011;11095;48.066;8.540;2023-06-22T10:42:07;9.98;;;5.25;;
21860;SDS011;11095;48.066;8.540;2023-06-22T10:44:36;10.70;;;5.15;;
21860;SDS011;11095;48.066;8.540;2023-06-22T10:47:01;10.85;;;5.40;;
21860;SDS011;11095;48.066;8.540;2023-06-22T10:49:27;12.15;;;5.22;;
21860;SDS011;11095;48.066;8.540;2023-06-22T10:51:53;11.63;;;5.60;;
21860;SDS011;11095;48.066;8.540;2023-06-22T10:54:18;11.55;;;5.45;;
21860;SDS011;11095;48.066;8.540;2023-06-22T10:56:44;11.23;;;5.40;;
21860;SDS011;11095;48.066;8.540;2023-06-22T10:59:13;9.30;;;5.47;;
21860;SDS011;11095;48.066;8.540;2023-06-22T11:01:39;10.82;;;5.97;;
21860;SDS011;11095;48.066;8.540;2023-06-22T11:04:04;12.27;;;5.32;;
21860;SDS011;11095;48.066;8.540;2023-06-22T11:06:30;10.77;;;5.55;;
21860;SDS011;11095;48.066;8.540;2023-06-22T11:08:56;10.88;;;5.50;;
21860;SDS011;11095;48.066;8.540;2023-06-22T11:11:28;8.90;;;5.32;;
21860;SDS011;11095;48.066;8.540;2023-06-22T11:13:54;11.52;;;5.85;;
21860;SDS011;11095;48.066;8.540;2023-06-22T11:16:20;12.85;;;6.00;;
21860;SDS011;11095;48.066;8.540;2023-06-22T11:18:45;9.13;;;5.63;;
21860;SDS011;11095;48.066;8.540;2023-06-22T11:21:11;9.68;;;5.75;;
21860;SDS011;11095;48.066;8.540;2023-06-22T11:23:36;10.80;;;5.72;;
21860;SDS011;11095;48.066;8.540;2023-06-22T11:26:02;9.60;;;4.95;;
21860;SDS011;11095;48.066;8.540;2023-06-22T11:28:27;10.63;;;5.07;;
21860;SDS011;11095;48.066;8.540;2023-06-22T11:30:53;12.93;;;5.93;;
21860;SDS011;11095;48.066;8.540;2023-06-22T11:33:18;9.27;;;5.53;;
21860;SDS011;11095;48.066;8.540;2023-06-22T11:35:47;9.98;;;6.30;;
21860;SDS011;11095;48.066;8.540;2023-06-22T11:38:12;10.13;;;5.75;;
21860;SDS011;11095;48.066;8.540;2023-06-22T11:40:43;9.55;;;5.60;;
21860;SDS011;11095;48.066;8.540;2023-06-22T11:43:14;12.70;;;6.15;;
21860;SDS011;11095;48.066;8.540;2023-06-22T11:45:47;14.35;;;6.20;;
21860;SDS011;11095;48.066;8.540;2023-06-22T11:48:13;10.57;;;5.68;;
21860;SDS011;11095;48.066;8.540;2023-06-22T11:53:59;10.43;;;6.28;;
21860;SDS011;11095;48.066;8.540;2023-06-22T11:56:32;10.60;;;6.90;;
21860;SDS011;11095;48.066;8.540;2023-06-22T11:58:59;8.50;;;5.78;;
21860;SDS011;11095;48.066;8.540;2023-06-22T12:01:24;10.52;;;5.90;;
21860;SDS011;11095;48.066;8.540;2023-06-22T12:03:50;10.98;;;6.43;;
21860;SDS011;11095;48.066;8.540;2023-06-22T12:06:19;13.63;;;6.65;;
21860;SDS011;11095;48.066;8.540;2023-06-22T12:08:47;12.77;;;6.05;;
21860;SDS011;11095;48.066;8.540;2023-06-22T12:11:31;11.93;;;6.32;;
21860;SDS011;11095;48.066;8.540;2023-06-22T12:14:18;10.45;;;6.25;;
21860;SDS011;11095;48.066;8.540;2023-06-22T12:16:54;14.25;;;6.60;;
21860;SDS011;11095;48.066;8.540;2023-06-22T12:22:44;11.10;;;6.72;;
21860;SDS011;11095;48.066;8.540;2023-06-22T12:25:15;10.13;;;6.00;;
21860;SDS011;11095;48.066;8.540;2023-06-22T12:27:45;13.63;;;6.38;;
21860;SDS011;11095;48.066;8.540;2023-06-22T12:30:11;9.88;;;5.88;;
21860;SDS011;11095;48.066;8.540;2023-06-22T12:32:39;9.18;;;5.22;;
21860;SDS011;11095;48.066;8.540;2023-06-22T12:42:02;9.05;;;5.40;;
21860;SDS011;11095;48.066;8.540;2023-06-22T12:44:28;9.32;;;5.22;;
21860;SDS011;11095;48.066;8.540;2023-06-22T12:47:24;8.88;;;4.80;;
21860;SDS011;11095;48.066;8.540;2023-06-22T12:49:52;8.73;;;4.72;;
21860;SDS011;11095;48.066;8.540;2023-06-22T12:52:23;10.98;;;5.20;;
21860;SDS011;11095;48.066;8.540;2023-06-22T12:55:08;8.50;;;4.55;;
21860;SDS011;11095;48.066;8.540;2023-06-22T12:57:56;8.60;;;4.85;;
21860;SDS011;11095;48.066;8.540;2023-06-22T13:00:25;7.35;;;4.50;;
21860;SDS011;11095;48.066;8.540;2023-06-22T13:05:26;11.77;;;4.70;;
21860;SDS011;11095;48.066;8.540;2023-06-22T13:07:59;8.75;;;3.53;;
21860;SDS011;11095;48.066;8.540;2023-06-22T13:10:39;10.50;;;2.92;;
21860;SDS011;11095;48.066;8.540;2023-06-22T13:13:04;8.02;;;2.50;;
21860;SDS011;11095;48.066;8.540;2023-06-22T13:15:33;7.30;;;2.50;;
21860;SDS011;11095;48.066;8.540;2023-06-22T13:17:59;6.32;;;2.17;;
21860;SDS011;11095;48.066;8.540;2023-06-22T13:20:24;9.25;;;2.53;;
21860;SDS011;11095;48.066;8.540;2023-06-22T13:22:50;9.30;;;2.63;;
21860;SDS011;11095;48.066;8.540;2023-06-22T13:25:16;6.82;;;2.55;;
21860;SDS011;11095;48.066;8.540;2023-06-22T13:27:44;7.78;;;2.50;;
21860;SDS011;11095;48.066;8.540;2023-06-22T13:30:10;11.43;;;3.53;;
21860;SDS011;11095;48.066;8.540;2023-06-22T13:32:36;10.98;;;3.30;;
21860;SDS011;11095;48.066;8.540;2023-06-22T13:35:07;9.60;;;2.90;;
21860;SDS011;11095;48.066;8.540;2023-06-22T13:41:04;8.57;;;2.80;;
21860;SDS011;11095;48.066;8.540;2023-06-22T13:43:40;8.82;;;2.80;;
21860;SDS011;11095;48.066;8.540;2023-06-22T13:46:14;8.88;;;2.80;;
21860;SDS011;11095;48.066;8.540;2023-06-22T13:48:40;10.40;;;2.90;;
21860;SDS011;11095;48.066;8.540;2023-06-22T13:51:06;8.93;;;2.83;;
21860;SDS011;11095;48.066;8.540;2023-06-22T13:53:34;14.65;;;3.05;;
21860;SDS011;11095;48.066;8.540;2023-06-22T13:55:59;10.40;;;2.72;;
21860;SDS011;11095;48.066;8.540;2023-06-22T13:58:25;10.45;;;2.75;;
21860;SDS011;11095;48.066;8.540;2023-06-22T14:00:51;6.95;;;2.78;;
21860;SDS011;11095;48.066;8.540;2023-06-22T14:03:16;9.95;;;3.03;;
21860;SDS011;11095;48.066;8.540;2023-06-22T14:05:42;9.80;;;3.35;;
21860;SDS011;11095;48.066;8.540;2023-06-22T14:08:08;8.70;;;3.30;;
21860;SDS011;11095;48.066;8.540;2023-06-22T14:10:39;10.38;;;3.53;;
21860;SDS011;11095;48.066;8.540;2023-06-22T14:13:05;13.02;;;3.42;;
21860;SDS011;11095;48.066;8.540;2023-06-22T14:15:34;12.93;;;3.50;;
21860;SDS011;11095;48.066;8.540;2023-06-22T14:20:59;8.80;;;3.58;;
21860;SDS011;11095;48.066;8.540;2023-06-22T14:23:25;8.52;;;3.33;;
21860;SDS011;11095;48.066;8.540;2023-06-22T14:25:56;12.68;;;3.63;;
21860;SDS011;11095;48.066;8.540;2023-06-22T14:28:32;8.93;;;3.13;;
21860;SDS011;11095;48.066;8.540;2023-06-22T14:31:00;10.50;;;3.85;;
21860;SDS011;11095;48.066;8.540;2023-06-22T14:33:33;11.57;;;3.58;;
21860;SDS011;11095;48.066;8.540;2023-06-22T14:35:59;9.23;;;3.50;;
21860;SDS011;11095;48.066;8.540;2023-06-22T14:38:27;5.73;;;3.23;;
21860;SDS011;11095;48.066;8.540;2023-06-22T14:41:01;11.95;;;4.00;;
21860;SDS011;11095;48.066;8.540;2023-06-22T14:43:31;10.18;;;3.70;;
21860;SDS011;11095;48.066;8.540;2023-06-22T14:46:17;6.97;;;3.42;;
21860;SDS011;11095;48.066;8.540;2023-06-22T14:48:43;10.80;;;3.95;;
21860;SDS011;11095;48.066;8.540;2023-06-22T14:51:10;6.95;;;3.70;;
21860;SDS011;11095;48.066;8.540;2023-06-22T14:53:37;11.45;;;4.35;;
21860;SDS011;11095;48.066;8.540;2023-06-22T14:56:02;8.68;;;3.88;;
21860;SDS011;11095;48.066;8.540;2023-06-22T14:58:38;10.40;;;3.85;;
21860;SDS011;11095;48.066;8.540;2023-06-22T15:01:12;8.88;;;3.85;;
21860;SDS011;11095;48.066;8.540;2023-06-22T15:03:37;6.78;;;3.70;;
21860;SDS011;11095;48.066;8.540;2023-06-22T15:06:09;10.63;;;4.13;;
21860;SDS011;11095;48.066;8.540;2023-06-22T15:08:36;8.15;;;3.95;;
21860;SDS011;11095;48.066;8.540;2023-06-22T15:11:03;8.57;;;4.63;;
21860;SDS011;11095;48.066;8.540;2023-06-22T15:13:32;7.82;;;4.22;;
21860;SDS011;11095;48.066;8.540;2023-06-22T15:16:01;9.00;;;3.90;;
21860;SDS011;11095;48.066;8.540;2023-06-22T15:18:31;9.90;;;4.13;;
21860;SDS011;11095;48.066;8.540;2023-06-22T15:23:29;9.55;;;4.45;;
21860;SDS011;11095;48.066;8.540;2023-06-22T15:25:55;11.00;;;4.30;;
21860;SDS011;11095;48.066;8.540;2023-06-22T15:28:22;8.18;;;4.07;;
21860;SDS011;11095;48.066;8.540;2023-06-22T15:30:58;11.93;;;4.28;;
21860;SDS011;11095;48.066;8.540;2023-06-22T15:33:24;9.38;;;3.53;;
21860;SDS011;11095;48.066;8.540;2023-06-22T15:35:56;6.43;;;3.65;;
21860;SDS011;11095;48.066;8.540;2023-06-22T15:38:30;9.93;;;3.80;;
21860;SDS011;11095;48.066;8.540;2023-06-22T15:40:59;7.25;;;3.58;;